Azamara Quest — 9HOM8 — position and weather

sailwx.info

Track history (hours):
 
Tides and Currents Weather Stations Pressure Air Temp Water Temp Dewpoint Dewpoint Depression Visibility Wind Speed Wind Dir Waves Ship Positions

Azamara Quest

Last reported at 2017-Jun-27 22:30 UTC. Time now 2017-Jun-27 22:38 UTC.
Position N 37°20' E 023°46'.

Length 181 m; draft 5.9 m.

Type: Passenger vessel. MMSI: 256216000.

Date/timePositionNaut miles runAvg speedWind from/ knotsBaromVisibWave heightAir tempDewpointWater temp
2017-Jun-27 22:30N 37°20' E 023°46'714.2
2017-Jun-27 22:00N 37°14' E 023°52'715.0
2017-Jun-27 21:30N 37°12' E 024°01'714.3
2017-Jun-27 21:00N 37°11' E 024°09'3014.5
2017-Jun-27 18:59N 37°19' E 024°45'714.9
2017-Jun-27 18:30N 37°21' E 024°54'714.9
2017-Jun-27 18:00N 37°23' E 025°03'714.8
2017-Jun-27 17:31N 37°27' E 025°11'713.2
2017-Jun-27 17:00N 37°27' E 025°19'0 0.3
2017-Jun-27 16:25N 37°27' E 025°19'0 0.0
2017-Jun-27 15:58N 37°27' E 025°19'0 0.0
2017-Jun-27 15:22N 37°27' E 025°19'0 0.0
2017-Jun-27 14:58N 37°27' E 025°19'0 0.0
2017-Jun-27 13:40N 37°27' E 025°19'0 0.0
2017-Jun-27 13:28N 37°27' E 025°19'0 0.0
2017-Jun-27 12:58N 37°27' E 025°19'0 0.0
2017-Jun-27 12:28N 37°27' E 025°19'0 0.0
2017-Jun-27 11:58N 37°27' E 025°19'0 0.0
2017-Jun-27 11:28N 37°27' E 025°19'0 0.0
2017-Jun-27 10:58N 37°27' E 025°19'0 0.0
2017-Jun-27 10:25N 37°27' E 025°19'0 0.0
2017-Jun-27 09:58N 37°27' E 025°19'0 0.0
2017-Jun-27 09:28N 37°27' E 025°19'0 0.0
2017-Jun-27 08:58N 37°27' E 025°19'0 0.0
2017-Jun-27 08:25N 37°27' E 025°19'0 0.0
2017-Jun-27 07:58N 37°27' E 025°19'0 0.1
2017-Jun-27 07:25N 37°27' E 025°19'0 0.0
2017-Jun-27 06:55N 37°27' E 025°19'0 0.1
2017-Jun-27 06:28N 37°27' E 025°19'0 0.0
2017-Jun-27 05:55N 37°27' E 025°19'0 0.0
2017-Jun-27 05:25N 37°27' E 025°19'0 0.0
2017-Jun-27 04:58N 37°27' E 025°19'0 0.0
2017-Jun-27 04:28N 37°27' E 025°19'0 0.2
2017-Jun-27 04:00N 37°27' E 025°19'4 8.9
2017-Jun-27 03:30N 37°27' E 025°13'4 8.0
2017-Jun-27 03:00N 37°26' E 025°09'4 8.6
2017-Jun-27 02:30N 37°22' E 025°06'4 8.7
2017-Jun-27 02:00N 37°18' E 025°04'4 8.6
2017-Jun-27 01:30N 37°14' E 025°02'815.2
2017-Jun-27 01:00N 37°07' E 024°58'  
2017-Jun-22 20:09N 37°46' E 025°47'214.8
2017-Jun-22 20:00N 37°44' E 025°45'612.4
2017-Jun-22 19:30N 37°38' E 025°46'714.5
2017-Jun-22 19:00N 37°32' E 025°52'22 1.2
2017-Jun-22 01:44N 37°11' E 025°49'313.4
2017-Jun-22 01:30N 37°12' E 025°45'913.6
2017-Jun-22 00:52N 37°14' E 025°34'513.9
2017-Jun-22 00:30N 37°14' E 025°28'714.0
2017-Jun-22 00:00N 37°14' E 025°19'714.3
2017-Jun-21 23:30N 37°14' E 025°10'714.1
2017-Jun-21 23:00N 37°14' E 025°01'714.3
2017-Jun-21 22:30N 37°13' E 024°52'5211.5
2017-Jun-21 18:00N 37°21' E 023°48'1414.3
2017-Jun-21 16:59N 37°35' E 023°43'714.3
2017-Jun-21 16:30N 37°42' E 023°41'714.1
2017-Jun-21 16:00N 37°48' E 023°37'713.2
2017-Jun-21 15:30N 37°55' E 023°37'2 3.6
2017-Jun-21 14:59N 37°56' E 023°38'0 0.0
2017-Jun-21 13:59N 37°56' E 023°38'0 0.0
2017-Jun-21 13:29N 37°56' E 023°38'0 0.0
2017-Jun-21 12:59N 37°56' E 023°38'0 0.0
2017-Jun-21 12:29N 37°56' E 023°38'0 0.0
2017-Jun-21 11:59N 37°56' E 023°38'0 0.0
2017-Jun-21 11:29N 37°56' E 023°38'0 0.0
2017-Jun-21 10:59N 37°56' E 023°38'0 0.0
2017-Jun-21 10:29N 37°56' E 023°38'0 0.0
2017-Jun-21 09:59N 37°56' E 023°38'0 0.0
2017-Jun-21 09:29N 37°56' E 023°38'0 0.0
2017-Jun-21 08:59N 37°56' E 023°38'0 0.0
2017-Jun-21 08:26N 37°56' E 023°38'0 0.0
2017-Jun-21 07:59N 37°56' E 023°38'0 0.0
2017-Jun-21 07:29N 37°56' E 023°38'0 0.0
2017-Jun-21 06:59N 37°56' E 023°38'0 0.0
2017-Jun-21 06:29N 37°56' E 023°38'0 0.0
2017-Jun-21 05:59N 37°56' E 023°38'0 0.0
2017-Jun-21 05:29N 37°56' E 023°38'0 0.0
2017-Jun-21 04:59N 37°56' E 023°38'0 0.0
2017-Jun-21 04:29N 37°56' E 023°38'0 0.0
2017-Jun-21 03:59N 37°56' E 023°38'0 0.0
2017-Jun-21 03:29N 37°56' E 023°38'0 0.0
2017-Jun-21 02:59N 37°56' E 023°38'0 0.0
2017-Jun-21 02:29N 37°56' E 023°38'0 0.0
2017-Jun-21 01:59N 37°56' E 023°38'0 0.1
2017-Jun-21 01:30N 37°56' E 023°38'2 3.1
2017-Jun-21 01:00N 37°55' E 023°37'612.3
2017-Jun-21 00:30N 37°50' E 023°40'714.8
2017-Jun-21 00:00N 37°43' E 023°43'815.4
2017-Jun-20 23:30N 37°35' E 023°45'917.5
2017-Jun-20 23:00N 37°27' E 023°45'  
Track history (hours):
 
Tides and Currents Weather Stations Pressure Air Temp Water Temp Dewpoint Dewpoint Depression Visibility Wind Speed Wind Dir Waves Ship Positions

Azamara Quest

Last reported at 2017-Jun-27 22:30 UTC. Time now 2017-Jun-27 22:38 UTC.
Position N 37°20' E 023°46'.

Length 181 m; draft 5.9 m.

Type: Passenger vessel. MMSI: 256216000.

Date/timePositionNaut miles runAvg speedWind from/ knotsBaromVisibWave heightAir tempDewpointWater temp
2017-Jun-27 22:30N 37°20' E 023°46'714.2
2017-Jun-27 22:00N 37°14' E 023°52'715.0
2017-Jun-27 21:30N 37°12' E 024°01'714.3
2017-Jun-27 21:00N 37°11' E 024°09'3014.5
2017-Jun-27 18:59N 37°19' E 024°45'714.9
2017-Jun-27 18:30N 37°21' E 024°54'714.9
2017-Jun-27 18:00N 37°23' E 025°03'714.8
2017-Jun-27 17:31N 37°27' E 025°11'713.2
2017-Jun-27 17:00N 37°27' E 025°19'0 0.3
2017-Jun-27 16:25N 37°27' E 025°19'0 0.0
2017-Jun-27 15:58N 37°27' E 025°19'0 0.0
2017-Jun-27 15:22N 37°27' E 025°19'0 0.0
2017-Jun-27 14:58N 37°27' E 025°19'0 0.0
2017-Jun-27 13:40N 37°27' E 025°19'0 0.0
2017-Jun-27 13:28N 37°27' E 025°19'0 0.0
2017-Jun-27 12:58N 37°27' E 025°19'0 0.0
2017-Jun-27 12:28N 37°27' E 025°19'0 0.0
2017-Jun-27 11:58N 37°27' E 025°19'0 0.0
2017-Jun-27 11:28N 37°27' E 025°19'0 0.0
2017-Jun-27 10:58N 37°27' E 025°19'0 0.0
2017-Jun-27 10:25N 37°27' E 025°19'0 0.0
2017-Jun-27 09:58N 37°27' E 025°19'0 0.0
2017-Jun-27 09:28N 37°27' E 025°19'0 0.0
2017-Jun-27 08:58N 37°27' E 025°19'0 0.0
2017-Jun-27 08:25N 37°27' E 025°19'0 0.0
2017-Jun-27 07:58N 37°27' E 025°19'0 0.1
2017-Jun-27 07:25N 37°27' E 025°19'0 0.0
2017-Jun-27 06:55N 37°27' E 025°19'0 0.1
2017-Jun-27 06:28N 37°27' E 025°19'0 0.0
2017-Jun-27 05:55N 37°27' E 025°19'0 0.0
2017-Jun-27 05:25N 37°27' E 025°19'0 0.0
2017-Jun-27 04:58N 37°27' E 025°19'0 0.0
2017-Jun-27 04:28N 37°27' E 025°19'0 0.2
2017-Jun-27 04:00N 37°27' E 025°19'4 8.9
2017-Jun-27 03:30N 37°27' E 025°13'4 8.0
2017-Jun-27 03:00N 37°26' E 025°09'4 8.6
2017-Jun-27 02:30N 37°22' E 025°06'4 8.7
2017-Jun-27 02:00N 37°18' E 025°04'4 8.6
2017-Jun-27 01:30N 37°14' E 025°02'815.2
2017-Jun-27 01:00N 37°07' E 024°58'  
2017-Jun-22 20:09N 37°46' E 025°47'214.8
2017-Jun-22 20:00N 37°44' E 025°45'612.4
2017-Jun-22 19:30N 37°38' E 025°46'714.5
2017-Jun-22 19:00N 37°32' E 025°52'22 1.2
2017-Jun-22 01:44N 37°11' E 025°49'313.4
2017-Jun-22 01:30N 37°12' E 025°45'913.6
2017-Jun-22 00:52N 37°14' E 025°34'513.9
2017-Jun-22 00:30N 37°14' E 025°28'714.0
2017-Jun-22 00:00N 37°14' E 025°19'714.3
2017-Jun-21 23:30N 37°14' E 025°10'714.1
2017-Jun-21 23:00N 37°14' E 025°01'714.3
2017-Jun-21 22:30N 37°13' E 024°52'5211.5
2017-Jun-21 18:00N 37°21' E 023°48'1414.3
2017-Jun-21 16:59N 37°35' E 023°43'714.3
2017-Jun-21 16:30N 37°42' E 023°41'714.1
2017-Jun-21 16:00N 37°48' E 023°37'713.2
2017-Jun-21 15:30N 37°55' E 023°37'2 3.6
2017-Jun-21 14:59N 37°56' E 023°38'0 0.0
2017-Jun-21 13:59N 37°56' E 023°38'0 0.0
2017-Jun-21 13:29N 37°56' E 023°38'0 0.0
2017-Jun-21 12:59N 37°56' E 023°38'0 0.0
2017-Jun-21 12:29N 37°56' E 023°38'0 0.0
2017-Jun-21 11:59N 37°56' E 023°38'0 0.0
2017-Jun-21 11:29N 37°56' E 023°38'0 0.0
2017-Jun-21 10:59N 37°56' E 023°38'0 0.0
2017-Jun-21 10:29N 37°56' E 023°38'0 0.0
2017-Jun-21 09:59N 37°56' E 023°38'0 0.0
2017-Jun-21 09:29N 37°56' E 023°38'0 0.0
2017-Jun-21 08:59N 37°56' E 023°38'0 0.0
2017-Jun-21 08:26N 37°56' E 023°38'0 0.0
2017-Jun-21 07:59N 37°56' E 023°38'0 0.0
2017-Jun-21 07:29N 37°56' E 023°38'0 0.0
2017-Jun-21 06:59N 37°56' E 023°38'0 0.0
2017-Jun-21 06:29N 37°56' E 023°38'0 0.0
2017-Jun-21 05:59N 37°56' E 023°38'0 0.0
2017-Jun-21 05:29N 37°56' E 023°38'0 0.0
2017-Jun-21 04:59N 37°56' E 023°38'0 0.0
2017-Jun-21 04:29N 37°56' E 023°38'0 0.0
2017-Jun-21 03:59N 37°56' E 023°38'0 0.0
2017-Jun-21 03:29N 37°56' E 023°38'0 0.0
2017-Jun-21 02:59N 37°56' E 023°38'0 0.0
2017-Jun-21 02:29N 37°56' E 023°38'0 0.0
2017-Jun-21 01:59N 37°56' E 023°38'0 0.1
2017-Jun-21 01:30N 37°56' E 023°38'2 3.1
2017-Jun-21 01:00N 37°55' E 023°37'612.3
2017-Jun-21 00:30N 37°50' E 023°40'714.8
2017-Jun-21 00:00N 37°43' E 023°43'815.4
2017-Jun-20 23:30N 37°35' E 023°45'917.5
2017-Jun-20 23:00N 37°27' E 023°45'  

Dump ship's entire track history